Ursvikens väder

stationens status  
Klimatstatistik

Klimatstatistik


Report for 2010 Jun
                   Monthly Climatological Summary for jun 2010

Name: Ursviken   City:    State: 
Elevation: 35 m  Lat: N 64° 42' 41"   Lon: E 021° 10' 44"

                  Temperature (°C), Rain (mm), Wind Speed (m/s)

                                      Heat  Cool        Avg
    Mean                              Deg   Deg         Wind                 Dom
Day Temp  High   Time   Low    Time   Days  Days  Rain  Speed High   Time    Dir
----------------------------------------------------------------------------------
 1   8,6  13,8   00:00   3,5   00:00   9,6   0,0   0,0   0,9   5,4   00:00   ---
 2   8,6  18,2   00:00  -0,9   00:00   9,6   0,0   0,0   0,5   4,1   00:00   ---
 3  12,3  16,0   00:00   8,6   00:00  15,4   0,0  10,8   0,9   6,8   00:00   NNV
 4  11,4  16,1   00:00   6,6   00:00   6,9  34,9   0,6   1,9   7,1   00:00   ---
 5   8,8  13,6   00:00   4,0   00:00   9,5   0,0   4,2   1,2   6,8   00:00   ---
 6   7,4  12,5   00:00   2,4   00:00  17,2   0,0   0,6   0,6   3,7   00:00    SV
 7   8,6  13,9   00:00   3,4   00:00   9,6   0,0   0,0   0,4   4,1   00:00   ---
 8   8,8  15,4   00:00   2,2   00:00   9,5   0,0   0,0   0,6   4,4   00:00   ---
 9  10,1  18,5   00:00   1,7   00:00   8,2   0,0   0,0   0,4   4,8   00:00   ---
10  12,3  17,0   00:00   7,5   00:00   6,0   0,0   0,0   0,9   4,1   00:00   ---
11  13,8  21,2   00:00   6,4   00:00   4,5   0,0   0,0   0,8   7,1   00:00   ---
12  12,7  18,0   00:00   7,4   00:00   5,6   0,0   0,0   2,2   9,9   00:00   ---
13  14,2  18,0   00:00  10,4   00:00   4,1   0,1   0,0   1,1   6,1   00:00   ---
14  12,3  15,5   00:00   9,1   00:00   6,0   0,0   3,6   0,6   4,4   00:00   ---
15  10,6  16,2   00:00   5,1   00:00   7,6   0,0   2,4   0,8   5,4   00:00   ---
16  11,2  19,4   00:00   3,0   00:00   7,1   0,0   0,0   0,8   5,1   00:00   ---
17  14,6  22,1   00:00   7,0   00:00   3,7   0,0   0,0   0,7   7,1   00:00   ---
18  14,5  18,6   00:00  10,4   00:00   3,8   0,0   9,9   0,7   4,4   00:00   ---
19  11,4  12,7   00:00  10,2   00:00   6,8   0,0  30,3   0,5   4,4   00:00   ---
20  12,1  15,8   00:00   8,5   00:00   6,1   0,0  40,2   0,6   4,1   00:00   ---
21  13,0  18,8   00:00   7,2   00:00   5,3   0,0   0,0   0,9   5,8   00:00   ---
22  13,6  20,8   00:00   6,3   00:00   4,7   0,0   0,0   0,9   4,8   00:00   ---
23  14,6  20,5   00:00   8,7   00:00   3,7   0,0   0,0   1,0   4,8   00:00   ---
24  15,8  24,0   00:00   7,6   00:00   2,5   0,0   0,0   0,6   6,8   00:00   ---
25  16,4  22,7   00:00  10,0   00:00   1,9   0,2   0,0   0,5   4,4   00:00   ---
26  16,4  22,0   00:00  10,8   00:00   1,9   0,0   1,2   1,0   7,1   00:00   ---
27  13,4  18,7   00:00   8,1   00:00   4,9   0,0   0,0   1,7  11,6   00:00   ---
28  16,3  23,2   00:00   9,3   00:00   5,4   0,0   0,0   1,1   4,8   00:00   SSO
29  17,1  25,7   00:00   8,6   00:00   1,1   0,0   0,0   0,6   5,1   00:00   ---
30  18,5  23,2   00:00  13,9   00:00   0,0   0,3   4,8   0,5   5,4   00:00   ---
----------------------------------------------------------------------------------
    12,7  25,7    29    -0,9     2   188,8  35,5 108,6   0,9  11,6    27       N

Max >=  20,0: 10
Max <=   0,0:  0
Min <=   0,0:  1
Min <= -20,0:  0
Max Rain: 40,2 on day 20
Days of Rain: 11 (>= 0,2 mm)  8 (>= 2,0 mm)  2 (>= 20,0 mm)
Heat Base: 18,3  Cool Base: 18,3  Method: Integration
 
: nu: mätare: diagram: idag och igår: månad och år: rekord: månadsrekord: statistik:
Startsidan Ursviken Örviken

Välkommen till Lundströms väder
Väderstationen som används är en WH1080, Uppdaterad 2024-06-13 15:40:01
skapad av Cumulus v1.9.4 (10992)
Forum
sedan 22 dec 2012